createdAt,value
2019-05-15T00:01:34.590Z,3.33
2019-05-15T00:04:03.140Z,3.22
2019-05-15T00:06:31.575Z,2.90
2019-05-15T00:09:00.052Z,3.45
2019-05-15T00:11:28.870Z,3.08
2019-05-15T00:13:59.091Z,2.98
2019-05-15T00:16:29.035Z,2.90
2019-05-15T00:18:55.918Z,2.75
2019-05-15T00:21:25.510Z,2.90
2019-05-15T00:23:53.911Z,3.25
2019-05-15T00:26:22.392Z,2.87
2019-05-15T00:31:28.987Z,2.87
2019-05-15T00:33:55.884Z,2.83
2019-05-15T00:36:24.352Z,3.12
2019-05-15T00:38:53.094Z,2.62
2019-05-15T00:41:21.748Z,2.58
2019-05-15T00:43:50.930Z,2.85
2019-05-15T00:46:19.403Z,3.27
2019-05-15T00:48:48.762Z,2.70
2019-05-15T00:51:16.373Z,3.00
2019-05-15T00:53:44.847Z,3.17
2019-05-15T00:56:13.325Z,2.85
2019-05-15T00:58:41.792Z,3.02
2019-05-15T01:01:10.307Z,3.05
2019-05-15T01:03:39.305Z,2.55
2019-05-15T01:06:08.403Z,3.25
2019-05-15T01:08:36.256Z,2.58
2019-05-15T01:11:04.743Z,2.58
2019-05-15T01:13:33.226Z,2.50
2019-05-15T01:16:01.722Z,2.42
2019-05-15T01:18:30.189Z,2.70
2019-05-15T01:20:58.813Z,2.50
2019-05-15T01:23:28.277Z,2.47
2019-05-15T01:25:55.608Z,2.58
2019-05-15T01:28:24.129Z,2.22
2019-05-15T01:30:52.555Z,2.62
2019-05-15T01:33:21.779Z,2.00
2019-05-15T01:35:50.326Z,2.67
2019-05-15T01:38:18.975Z,2.02
2019-05-15T01:40:48.505Z,2.08
2019-05-15T01:43:18.492Z,2.20
2019-05-15T01:45:44.467Z,2.10
2019-05-15T01:48:12.956Z,1.92
2019-05-15T01:50:41.427Z,2.17
2019-05-15T01:53:10.177Z,1.95
2019-05-15T01:55:39.504Z,2.25
2019-05-15T01:58:09.074Z,2.05
2019-05-15T02:00:35.672Z,2.20
2019-05-15T02:03:04.409Z,2.60
2019-05-15T02:05:32.839Z,1.98
2019-05-15T02:08:01.329Z,2.60
2019-05-15T02:10:30.199Z,2.33
2019-05-15T02:12:58.835Z,2.75
2019-05-15T02:15:28.547Z,2.17
2019-05-15T02:17:56.059Z,2.20
2019-05-15T02:20:24.540Z,2.15
2019-05-15T02:22:53.979Z,2.15
2019-05-15T02:25:22.427Z,2.30
2019-05-15T02:27:51.631Z,2.55
2019-05-15T02:30:28.341Z,2.62
2019-05-15T02:32:50.084Z,2.58
2019-05-15T02:35:18.541Z,2.17
2019-05-15T02:37:48.750Z,2.65
2019-05-15T02:40:13.987Z,2.10
2019-05-15T02:42:43.502Z,2.40
2019-05-15T02:45:12.230Z,2.10
2019-05-15T02:47:40.665Z,2.77
2019-05-15T02:50:10.707Z,2.15
2019-05-15T02:52:39.637Z,2.40
2019-05-15T02:55:08.976Z,2.27
2019-05-15T02:57:34.697Z,2.20
2019-05-15T03:00:03.474Z,2.03
2019-05-15T03:02:32.214Z,1.98
2019-05-15T03:05:00.644Z,2.22
2019-05-15T03:07:29.680Z,2.08
2019-05-15T03:09:59.971Z,2.58
2019-05-15T03:12:29.010Z,2.45
2019-05-15T03:14:55.334Z,2.80
2019-05-15T03:17:24.078Z,2.20
2019-05-15T03:19:52.564Z,2.22
2019-05-15T03:22:21.341Z,2.65
2019-05-15T03:24:50.588Z,2.35
2019-05-15T03:27:19.704Z,2.35
2019-05-15T03:29:49.415Z,2.10
2019-05-15T03:32:27.568Z,2.70
2019-05-15T03:34:47.301Z,2.07
2019-05-15T03:37:13.169Z,2.30
2019-05-15T03:39:41.369Z,2.42
2019-05-15T03:42:10.064Z,2.62
2019-05-15T03:44:39.595Z,2.90
2019-05-15T03:47:09.250Z,4.80
2019-05-15T03:49:39.430Z,4.95
2019-05-15T03:52:04.982Z,3.50
2019-05-15T03:54:33.739Z,2.40
2019-05-15T03:57:10.326Z,2.15
2019-05-15T03:59:39.907Z,2.02
2019-05-15T04:02:08.628Z,2.62
2019-05-15T04:04:38.878Z,2.77
2019-05-15T04:07:09.007Z,3.05
2019-05-15T04:09:33.885Z,2.62
2019-05-15T04:12:02.359Z,2.87
2019-05-15T04:14:30.865Z,2.52
2019-05-15T04:16:59.753Z,2.47
2019-05-15T04:19:29.585Z,2.40
2019-05-15T04:21:59.779Z,2.70
2019-05-15T04:24:25.155Z,2.67
2019-05-15T04:26:54.365Z,2.20
2019-05-15T04:29:28.964Z,2.25
2019-05-15T04:32:01.303Z,2.20
2019-05-15T04:34:24.293Z,2.42
2019-05-15T04:36:52.758Z,2.45
2019-05-15T04:39:21.305Z,2.42
2019-05-15T04:41:50.200Z,3.05
2019-05-15T04:44:19.300Z,2.15
2019-05-15T04:46:49.559Z,2.42
2019-05-15T04:49:15.536Z,2.00
2019-05-15T04:51:44.054Z,2.00
2019-05-15T04:54:12.809Z,1.80
2019-05-15T04:56:41.320Z,1.72
2019-05-15T04:59:10.356Z,2.05
2019-05-15T05:01:40.167Z,1.95
2019-05-15T05:04:09.235Z,1.80
2019-05-15T05:06:38.495Z,2.98
2019-05-15T05:09:05.350Z,2.10
2019-05-15T05:11:33.892Z,2.05
2019-05-15T05:14:02.392Z,2.10
2019-05-15T05:16:30.901Z,2.00
2019-05-15T05:18:59.543Z,1.57
2019-05-15T05:21:27.909Z,2.00
2019-05-15T05:23:58.491Z,1.87
2019-05-15T05:26:25.448Z,2.12
2019-05-15T05:28:54.756Z,2.02
2019-05-15T05:31:23.398Z,1.70
2019-05-15T05:33:52.086Z,2.15
2019-05-15T05:36:20.581Z,1.90
2019-05-15T05:38:49.514Z,1.85
2019-05-15T05:41:18.962Z,1.60
2019-05-15T05:43:46.010Z,1.90
2019-05-15T05:46:14.765Z,2.02
2019-05-15T05:48:43.276Z,1.77
2019-05-15T05:51:11.851Z,1.82
2019-05-15T05:53:40.253Z,1.30
2019-05-15T05:56:09.116Z,1.50
2019-05-15T05:58:38.984Z,1.65
2019-05-15T06:01:05.631Z,1.90
2019-05-15T06:03:34.091Z,1.80
2019-05-15T06:06:02.579Z,1.62
2019-05-15T06:08:31.044Z,1.95
2019-05-15T06:10:59.550Z,1.65
2019-05-15T06:13:29.096Z,1.70
2019-05-15T06:15:58.875Z,1.45
2019-05-15T06:18:27.990Z,2.50
2019-05-15T06:20:54.176Z,2.85
2019-05-15T06:23:24.872Z,3.10
2019-05-15T06:25:51.434Z,2.15
2019-05-15T06:28:20.535Z,1.40
2019-05-15T06:30:48.760Z,1.67
2019-05-15T06:33:18.844Z,1.90
2019-05-15T06:35:45.464Z,1.45
2019-05-15T06:38:14.026Z,1.70
2019-05-15T06:40:42.447Z,1.60
2019-05-15T06:43:10.901Z,1.37
2019-05-15T06:45:39.390Z,1.35
2019-05-15T06:48:09.431Z,1.60
2019-05-15T06:50:38.205Z,1.85
2019-05-15T06:53:09.963Z,1.80
2019-05-15T06:55:34.334Z,1.62
2019-05-15T06:58:02.893Z,1.72
2019-05-15T07:00:31.255Z,1.77
2019-05-15T07:02:59.682Z,1.75
2019-05-15T07:05:29.480Z,2.10
2019-05-15T07:07:58.530Z,1.50
2019-05-15T07:10:28.656Z,1.75
2019-05-15T07:12:54.405Z,2.12
2019-05-15T07:15:22.816Z,1.82
2019-05-15T07:17:51.369Z,1.82
2019-05-15T07:20:19.786Z,2.30
2019-05-15T07:22:49.155Z,1.75
2019-05-15T07:25:18.880Z,2.00
2019-05-15T07:27:47.811Z,10.72
2019-05-15T07:30:14.200Z,1.70
2019-05-15T07:32:42.942Z,1.50
2019-05-15T07:35:11.401Z,2.02
2019-05-15T07:37:40.345Z,2.27
2019-05-15T07:40:10.466Z,1.95
2019-05-15T07:42:39.069Z,1.60
2019-05-15T07:45:08.236Z,1.70
2019-05-15T07:47:38.321Z,1.67
2019-05-15T07:50:05.230Z,1.47
2019-05-15T07:52:33.693Z,1.52
2019-05-15T07:55:02.177Z,1.70
2019-05-15T07:57:30.662Z,1.60
2019-05-15T07:59:59.070Z,1.70
2019-05-15T08:02:28.438Z,1.85
2019-05-15T08:04:57.648Z,1.60
2019-05-15T08:07:25.016Z,1.87
2019-05-15T08:09:53.589Z,2.12
2019-05-15T08:12:22.079Z,1.98
2019-05-15T08:14:51.091Z,2.27
2019-05-15T08:17:21.821Z,1.72
2019-05-15T08:19:48.684Z,2.10
2019-05-15T08:22:18.305Z,2.20
2019-05-15T08:24:44.889Z,2.08
2019-05-15T08:27:13.373Z,1.77
2019-05-15T08:30:01.275Z,2.10
2019-05-15T08:32:29.812Z,2.27
2019-05-15T08:34:58.649Z,1.87
2019-05-15T08:37:29.260Z,1.75
2019-05-15T08:39:55.364Z,1.80
2019-05-15T08:42:23.883Z,1.95
2019-05-15T08:44:52.634Z,1.90
2019-05-15T08:47:21.152Z,1.90
2019-05-15T08:49:49.678Z,1.90
2019-05-15T08:52:18.900Z,1.90
2019-05-15T08:57:08.312Z,1.70
2019-05-15T08:59:34.154Z,1.80
2019-05-15T09:02:02.926Z,1.50
2019-05-15T09:04:34.794Z,1.55
2019-05-15T09:07:01.309Z,1.50
2019-05-15T09:09:29.273Z,1.50
2019-05-15T09:11:58.596Z,1.57
2019-05-15T09:14:28.569Z,1.60
2019-05-15T09:16:58.073Z,1.70
2019-05-15T09:19:23.930Z,1.50
2019-05-15T09:22:18.727Z,1.40
2019-05-15T09:24:48.848Z,1.80
2019-05-15T09:27:15.177Z,1.75
2019-05-15T09:29:43.689Z,1.67
2019-05-15T09:32:19.141Z,1.25
2019-05-15T09:34:54.218Z,1.50
2019-05-15T09:37:17.903Z,1.32
2019-05-15T09:39:43.937Z,1.60
2019-05-15T09:42:12.698Z,1.35
2019-05-15T09:44:41.194Z,1.77
2019-05-15T09:47:09.972Z,1.72
2019-05-15T09:49:39.137Z,1.40
2019-05-15T09:52:09.032Z,1.70
2019-05-15T09:54:35.307Z,1.92
2019-05-15T09:57:03.883Z,2.30
2019-05-15T09:59:32.364Z,1.72
2019-05-15T10:02:00.773Z,1.50
2019-05-15T10:04:29.613Z,1.20
2019-05-15T10:06:58.325Z,1.65
2019-05-15T10:09:28.469Z,2.00
2019-05-15T10:11:56.834Z,1.60
2019-05-15T10:14:25.556Z,2.08
2019-05-15T10:16:54.008Z,1.52
2019-05-15T10:19:22.580Z,2.12
2019-05-15T10:21:52.906Z,1.65
2019-05-15T10:24:19.558Z,1.75
2019-05-15T10:26:49.092Z,1.67
2019-05-15T10:29:16.780Z,1.90
2019-05-15T10:31:45.270Z,1.80
2019-05-15T10:34:13.766Z,1.57
2019-05-15T10:36:42.278Z,1.87
2019-05-15T10:39:10.830Z,1.45
2019-05-15T10:41:39.183Z,1.57
2019-05-15T10:44:09.191Z,1.45
2019-05-15T10:46:38.150Z,1.80
2019-05-15T10:49:04.644Z,1.98
2019-05-15T10:51:33.409Z,1.82
2019-05-15T10:54:02.209Z,1.77
2019-05-15T10:56:30.692Z,1.40
2019-05-15T10:58:59.928Z,2.10
2019-05-15T11:01:28.370Z,1.65
2019-05-15T11:03:58.855Z,1.55
2019-05-15T11:06:25.331Z,1.60
2019-05-15T11:08:53.821Z,1.50
2019-05-15T11:11:22.293Z,2.00
2019-05-15T11:13:50.787Z,1.40
2019-05-15T11:16:21.223Z,1.40
2019-05-15T11:18:48.281Z,0.98
2019-05-15T11:21:18.814Z,1.15
2019-05-15T11:23:45.266Z,1.35
2019-05-15T11:26:13.711Z,1.50
2019-05-15T11:28:42.462Z,1.40
2019-05-15T11:31:10.903Z,1.57
2019-05-15T11:33:39.762Z,0.98
2019-05-15T11:36:08.593Z,1.60
2019-05-15T11:38:38.195Z,1.35
2019-05-15T11:41:08.427Z,1.10
2019-05-15T11:43:34.469Z,1.05
2019-05-15T11:46:03.450Z,1.45
2019-05-15T11:48:32.963Z,1.12
2019-05-15T11:51:02.582Z,1.00
2019-05-15T11:53:31.128Z,1.10
2019-05-15T11:56:01.875Z,1.20
2019-05-15T11:58:30.663Z,0.95
2019-05-15T12:00:59.331Z,1.00
2019-05-15T12:03:29.010Z,0.90
2019-05-15T12:05:58.349Z,0.90
2019-05-15T12:08:24.909Z,1.00
2019-05-15T12:10:53.289Z,0.98
2019-05-15T12:13:22.149Z,0.80
2019-05-15T12:15:50.843Z,0.85
2019-05-15T12:18:19.389Z,0.75
2019-05-15T12:20:48.567Z,0.60
2019-05-15T12:23:16.378Z,0.80
2019-05-15T12:25:44.920Z,0.90
2019-05-15T12:28:13.363Z,0.80
2019-05-15T12:30:41.801Z,0.62
2019-05-15T12:33:10.347Z,0.70
2019-05-15T12:35:40.047Z,0.70
2019-05-15T12:38:10.056Z,0.90
2019-05-15T13:00:25.114Z,0.95
2019-05-15T13:02:53.684Z,0.80
2019-05-15T13:05:22.203Z,0.70
2019-05-15T13:07:50.781Z,1.00
2019-05-15T13:10:19.314Z,0.70
2019-05-15T13:13:00.306Z,0.47
2019-05-15T13:15:18.928Z,0.60
2019-05-15T13:17:51.909Z,0.47
2019-05-15T13:20:18.277Z,0.78
2019-05-15T13:22:44.259Z,0.82
2019-05-15T13:25:12.778Z,0.70
2019-05-15T13:27:43.014Z,0.80
2019-05-15T13:30:11.705Z,0.95
2019-05-15T13:32:59.722Z,0.85
2019-05-15T13:35:28.727Z,0.60
2019-05-15T13:37:58.633Z,0.93
2019-05-15T13:40:36.963Z,1.00
2019-05-15T13:42:54.166Z,0.80
2019-05-15T13:45:22.658Z,0.70
2019-05-15T13:47:51.126Z,0.62
2019-05-15T13:50:19.628Z,0.85
2019-05-15T13:52:48.268Z,0.82
2019-05-15T13:55:24.768Z,0.93
2019-05-15T13:57:45.461Z,1.22
2019-05-15T14:00:23.561Z,0.90
2019-05-15T14:02:52.091Z,1.00
2019-05-15T14:05:20.539Z,1.07
2019-05-15T14:07:53.199Z,1.22
2019-05-15T14:10:18.109Z,0.90
2019-05-15T14:12:49.777Z,0.50
2019-05-15T14:15:18.241Z,0.82
2019-05-15T14:17:48.277Z,0.85
2019-05-15T14:20:15.616Z,0.72
2019-05-15T14:22:44.488Z,0.85
2019-05-15T14:25:14.009Z,0.70
2019-05-15T14:27:42.542Z,0.80
2019-05-15T14:30:11.126Z,0.68
2019-05-15T14:32:39.760Z,0.75
2019-05-15T14:35:09.061Z,0.80
2019-05-15T14:37:36.908Z,0.70
2019-05-15T14:40:08.496Z,0.82
2019-05-15T14:42:35.613Z,1.00
2019-05-15T14:45:04.436Z,0.78
2019-05-15T14:47:33.890Z,0.90
2019-05-15T14:50:02.501Z,1.10
2019-05-15T14:52:30.861Z,1.17
2019-05-15T14:54:59.637Z,1.00
2019-05-15T14:57:28.140Z,0.90
2019-05-15T14:59:58.039Z,2.83
2019-05-15T15:02:25.374Z,3.10
2019-05-15T15:04:53.882Z,2.92
2019-05-15T15:07:22.421Z,2.00
2019-05-15T15:09:51.252Z,2.25
2019-05-15T15:12:19.766Z,1.30
2019-05-15T15:14:48.675Z,1.12
2019-05-15T15:17:19.134Z,2.20
2019-05-15T15:19:45.285Z,1.50
2019-05-15T15:22:14.184Z,1.50
2019-05-15T15:24:42.660Z,1.55
2019-05-15T15:27:12.259Z,2.10
2019-05-15T15:29:40.798Z,1.57
2019-05-15T15:32:09.169Z,1.15
2019-05-15T15:34:38.781Z,2.17
2019-05-15T15:37:08.341Z,1.70
2019-05-15T15:39:35.119Z,1.80
2019-05-15T15:42:04.643Z,1.60
2019-05-15T15:44:33.101Z,1.40
2019-05-15T15:47:01.638Z,1.75
2019-05-15T15:49:32.107Z,1.55
2019-05-15T15:52:02.564Z,1.63
2019-05-15T15:54:33.062Z,1.80
2019-05-15T15:57:15.487Z,1.80
2019-05-15T15:59:43.949Z,1.70
2019-05-15T16:02:15.128Z,1.95
2019-05-15T16:04:43.688Z,1.80
2019-05-15T16:07:13.128Z,1.67
2019-05-15T16:09:41.666Z,1.70
2019-05-15T16:12:10.268Z,1.80
2019-05-15T16:14:38.752Z,1.70
2019-05-15T16:17:09.295Z,1.37
2019-05-15T16:19:38.855Z,1.30
2019-05-15T16:22:08.855Z,1.95
2019-05-15T16:24:38.536Z,2.70
2019-05-15T16:27:05.063Z,3.45
2019-05-15T16:29:39.144Z,2.22
2019-05-15T16:32:04.526Z,2.33
2019-05-15T16:34:33.021Z,2.02
2019-05-15T16:37:01.496Z,2.08
2019-05-15T16:39:30.580Z,2.45
2019-05-15T16:41:59.524Z,2.10
2019-05-15T16:44:28.947Z,2.10
2019-05-15T16:46:58.708Z,2.50
2019-05-15T16:49:24.811Z,2.42
2019-05-15T16:51:53.289Z,2.33
2019-05-15T16:54:21.812Z,3.17
2019-05-15T16:56:50.248Z,2.60
2019-05-15T16:59:18.736Z,2.37
2019-05-15T17:01:48.924Z,2.37
2019-05-15T17:04:18.029Z,2.87
2019-05-15T17:06:44.207Z,2.80
2019-05-15T17:09:21.233Z,2.55
2019-05-15T17:11:41.808Z,2.37
2019-05-15T17:14:10.249Z,2.50
2019-05-15T17:16:39.752Z,2.77
2019-05-15T17:19:08.692Z,2.92
2019-05-15T17:21:36.703Z,2.40
2019-05-15T17:24:05.201Z,2.42
2019-05-15T17:26:33.666Z,2.47
2019-05-15T17:29:02.152Z,2.20
2019-05-15T17:31:30.813Z,2.67
2019-05-15T17:34:00.308Z,3.08
2019-05-15T17:36:31.997Z,3.25
2019-05-15T17:38:58.096Z,3.23
2019-05-15T17:41:28.512Z,3.58
2019-05-15T17:43:54.999Z,2.85
2019-05-15T17:46:24.456Z,2.75
2019-05-15T17:48:56.633Z,2.83
2019-05-15T17:51:21.705Z,2.20
2019-05-15T17:53:50.210Z,2.50
2019-05-15T17:56:18.669Z,2.55
2019-05-15T17:58:48.686Z,2.60
2019-05-15T18:01:15.565Z,2.75
2019-05-15T18:03:44.040Z,2.50
2019-05-15T18:06:12.523Z,2.70
2019-05-15T18:08:41.734Z,2.65
2019-05-15T18:11:10.215Z,2.70
2019-05-15T18:13:38.694Z,3.02
2019-05-15T18:16:12.613Z,3.10
2019-05-15T18:18:35.650Z,3.22
2019-05-15T18:21:04.129Z,3.10
2019-05-15T18:23:32.609Z,3.12
2019-05-15T18:26:01.078Z,3.05
2019-05-15T18:28:29.851Z,3.00
2019-05-15T18:30:58.921Z,2.70
2019-05-15T18:33:27.993Z,2.70
2019-05-15T18:35:55.300Z,4.20
2019-05-15T18:38:23.794Z,3.72
2019-05-15T18:40:52.349Z,4.08
2019-05-15T18:43:21.950Z,3.22
2019-05-15T18:45:51.356Z,4.40
2019-05-15T18:48:20.151Z,4.25
2019-05-15T18:50:48.884Z,6.22
2019-05-15T18:53:17.330Z,6.85
2019-05-15T18:55:45.793Z,6.60
2019-05-15T18:58:14.292Z,5.12
2019-05-15T19:03:30.416Z,4.08
2019-05-15T19:05:58.886Z,3.92
2019-05-15T19:08:28.251Z,6.65
2019-05-15T19:10:58.274Z,5.03
2019-05-15T19:13:24.788Z,3.92
2019-05-15T19:15:53.229Z,2.43
2019-05-15T19:18:21.713Z,3.83
2019-05-15T19:20:50.469Z,3.60
2019-05-15T19:23:18.978Z,4.78
2019-05-15T19:25:48.441Z,3.20
2019-05-15T19:28:15.941Z,3.08
2019-05-15T19:30:44.410Z,3.33
2019-05-15T19:33:13.066Z,3.10
2019-05-15T19:35:41.521Z,3.10
2019-05-15T19:38:11.070Z,2.98
2019-05-15T19:40:39.699Z,2.85
2019-05-15T19:43:09.208Z,3.05
2019-05-15T19:45:38.580Z,2.83
2019-05-15T19:48:05.309Z,3.60
2019-05-15T19:50:33.990Z,3.35
2019-05-15T19:53:02.584Z,3.58
2019-05-15T19:55:31.159Z,2.70
2019-05-15T19:57:59.690Z,2.50
2019-05-15T20:00:28.636Z,2.30
2019-05-15T20:02:58.062Z,2.47
2019-05-15T20:05:25.686Z,2.72
2019-05-15T20:07:54.168Z,2.25
2019-05-15T20:10:22.670Z,3.85
2019-05-15T20:12:51.147Z,3.02
2019-05-15T20:15:19.619Z,3.50
2019-05-15T20:17:48.091Z,2.52
2019-05-15T20:20:18.651Z,2.10
2019-05-15T20:22:45.558Z,2.50
2019-05-15T20:25:14.057Z,2.52
2019-05-15T20:27:42.609Z,2.20
2019-05-15T20:30:11.022Z,1.98
2019-05-15T20:32:39.594Z,2.12
2019-05-15T20:35:08.841Z,1.70
2019-05-15T20:37:39.004Z,2.20
2019-05-15T20:40:05.767Z,1.92
2019-05-15T20:42:34.667Z,2.02
2019-05-15T20:45:03.314Z,1.85
2019-05-15T20:47:33.922Z,2.00
2019-05-15T20:50:02.888Z,2.03
2019-05-15T20:52:31.457Z,2.05
2019-05-15T20:55:00.968Z,1.90
2019-05-15T20:57:33.997Z,1.90
2019-05-15T21:00:02.840Z,1.92
2019-05-15T21:02:32.272Z,2.50
2019-05-15T21:05:00.935Z,2.22
2019-05-15T21:07:38.092Z,2.33
2019-05-15T21:09:58.773Z,2.80
2019-05-15T21:12:29.868Z,2.40
2019-05-15T21:14:58.024Z,2.17
2019-05-15T21:17:24.182Z,2.47
2019-05-15T21:19:52.686Z,2.33
2019-05-15T21:22:21.222Z,1.92
2019-05-15T21:24:50.662Z,2.05
2019-05-15T21:27:24.242Z,2.33
2019-05-15T21:29:49.057Z,2.55
2019-05-15T21:32:19.627Z,2.55
2019-05-15T21:34:49.251Z,2.40
2019-05-15T21:37:15.262Z,2.85
2019-05-15T21:39:48.366Z,2.60
2019-05-15T21:42:18.243Z,2.50
2019-05-15T21:44:44.167Z,2.60
2019-05-15T21:47:12.787Z,2.50
2019-05-15T21:49:42.748Z,2.60
2019-05-15T21:52:11.543Z,2.85
2019-05-15T21:54:40.207Z,3.10
2019-05-15T21:57:29.205Z,3.65
2019-05-15T21:59:38.532Z,3.70
2019-05-15T22:02:07.215Z,3.42
2019-05-15T22:04:51.004Z,4.08
2019-05-15T22:07:08.830Z,4.58
2019-05-15T22:09:37.834Z,4.78
2019-05-15T22:12:04.142Z,5.22
2019-05-15T22:14:32.992Z,4.78
2019-05-15T22:17:01.428Z,4.17
2019-05-15T22:19:30.323Z,4.90
2019-05-15T22:21:59.399Z,4.90
2019-05-15T22:24:28.521Z,4.78
2019-05-15T22:26:58.655Z,4.33
2019-05-15T22:29:28.934Z,4.60
2019-05-15T22:31:59.025Z,3.77
2019-05-15T22:34:25.669Z,4.00
2019-05-15T22:36:54.584Z,4.25
2019-05-15T22:39:23.021Z,4.10
2019-05-15T22:41:53.892Z,4.25
2019-05-15T22:44:23.539Z,3.90
2019-05-15T22:46:52.077Z,4.15
2019-05-15T22:49:22.594Z,4.33
2019-05-15T22:51:52.034Z,4.50
2019-05-15T22:54:22.353Z,4.40
2019-05-15T22:56:51.837Z,4.20
2019-05-15T22:59:21.856Z,4.40
2019-05-15T23:01:50.998Z,4.83
2019-05-15T23:04:19.450Z,4.50
2019-05-15T23:06:49.390Z,4.05
2019-05-15T23:09:17.848Z,4.25
2019-05-15T23:11:48.491Z,4.60
2019-05-15T23:14:15.578Z,4.83
2019-05-15T23:16:44.403Z,4.28
2019-05-15T23:19:12.813Z,4.37
2019-05-15T23:21:41.687Z,4.40
2019-05-15T23:24:10.470Z,4.50
2019-05-15T23:26:40.304Z,4.40
2019-05-15T23:29:08.763Z,5.00
2019-05-15T23:31:37.187Z,4.42
2019-05-15T23:34:07.883Z,5.08
2019-05-15T23:36:35.195Z,4.28
2019-05-15T23:39:04.589Z,4.70
2019-05-15T23:41:33.390Z,4.40
2019-05-15T23:44:01.864Z,4.83
2019-05-15T23:46:30.362Z,5.40
2019-05-15T23:48:59.853Z,4.83
2019-05-15T23:51:29.647Z,5.30
2019-05-15T23:53:58.696Z,4.55
2019-05-15T23:56:28.865Z,4.53
2019-05-15T23:58:56.215Z,4.65
